sensor_id;sensor_type;location;lat;lon;timestamp;temperature;humidity
20380;DHT22;10349;48.666;8.948;2023-04-30T00:01:43;10.00;99.90
20380;DHT22;10349;48.666;8.948;2023-04-30T00:04:09;10.10;99.90
20380;DHT22;10349;48.666;8.948;2023-04-30T00:06:34;10.10;99.90
20380;DHT22;10349;48.666;8.948;2023-04-30T00:09:00;10.10;99.90
20380;DHT22;10349;48.666;8.948;2023-04-30T00:11:26;10.00;99.90
20380;DHT22;10349;48.666;8.948;2023-04-30T00:13:52;10.00;99.90
20380;DHT22;10349;48.666;8.948;2023-04-30T00:16:18;10.00;99.90
20380;DHT22;10349;48.666;8.948;2023-04-30T00:18:44;10.00;99.90
20380;DHT22;10349;48.666;8.948;2023-04-30T00:21:10;10.00;99.90
20380;DHT22;10349;48.666;8.948;2023-04-30T00:23:38;10.00;99.90
20380;DHT22;10349;48.666;8.948;2023-04-30T00:26:04;10.00;99.90
20380;DHT22;10349;48.666;8.948;2023-04-30T00:28:30;10.00;99.90
20380;DHT22;10349;48.666;8.948;2023-04-30T00:30:56;10.00;99.90
20380;DHT22;10349;48.666;8.948;2023-04-30T00:33:21;10.00;99.90
20380;DHT22;10349;48.666;8.948;2023-04-30T00:35:47;10.00;99.90
20380;DHT22;10349;48.666;8.948;2023-04-30T00:38:14;10.00;99.90
20380;DHT22;10349;48.666;8.948;2023-04-30T00:40:40;9.90;99.90
20380;DHT22;10349;48.666;8.948;2023-04-30T00:43:08;9.90;99.90
20380;DHT22;10349;48.666;8.948;2023-04-30T00:45:34;9.90;99.90
20380;DHT22;10349;48.666;8.948;2023-04-30T00:48:03;9.90;99.90
20380;DHT22;10349;48.666;8.948;2023-04-30T00:50:35;9.90;99.90
20380;DHT22;10349;48.666;8.948;2023-04-30T00:53:01;9.90;99.90
20380;DHT22;10349;48.666;8.948;2023-04-30T00:55:27;9.90;99.90
20380;DHT22;10349;48.666;8.948;2023-04-30T00:57:54;9.80;99.90
20380;DHT22;10349;48.666;8.948;2023-04-30T01:00:20;9.90;99.90
20380;DHT22;10349;48.666;8.948;2023-04-30T01:02:46;9.80;99.90
20380;DHT22;10349;48.666;8.948;2023-04-30T01:05:12;9.70;99.90
20380;DHT22;10349;48.666;8.948;2023-04-30T01:07:39;9.80;99.90
20380;DHT22;10349;48.666;8.948;2023-04-30T01:10:10;9.70;99.90
20380;DHT22;10349;48.666;8.948;2023-04-30T01:12:50;9.70;99.90
20380;DHT22;10349;48.666;8.948;2023-04-30T01:15:37;9.70;99.90
20380;DHT22;10349;48.666;8.948;2023-04-30T01:20:49;9.60;99.90
20380;DHT22;10349;48.666;8.948;2023-04-30T01:23:53;9.50;99.90
20380;DHT22;10349;48.666;8.948;2023-04-30T01:26:34;9.50;99.90
20380;DHT22;10349;48.666;8.948;2023-04-30T01:29:06;9.50;99.90
20380;DHT22;10349;48.666;8.948;2023-04-30T01:31:32;9.40;99.90
20380;DHT22;10349;48.666;8.948;2023-04-30T01:33:58;9.40;99.90
20380;DHT22;10349;48.666;8.948;2023-04-30T01:42:04;9.50;99.90
20380;DHT22;10349;48.666;8.948;2023-04-30T01:44:47;9.50;99.90
20380;DHT22;10349;48.666;8.948;2023-04-30T01:47:38;9.40;99.90
20380;DHT22;10349;48.666;8.948;2023-04-30T01:50:14;9.40;99.90
20380;DHT22;10349;48.666;8.948;2023-04-30T01:52:51;9.40;99.90
20380;DHT22;10349;48.666;8.948;2023-04-30T01:55:21;9.40;99.90
20380;DHT22;10349;48.666;8.948;2023-04-30T01:58:00;9.30;99.90
20380;DHT22;10349;48.666;8.948;2023-04-30T02:00:27;9.40;99.90
20380;DHT22;10349;48.666;8.948;2023-04-30T02:02:55;9.40;99.90
20380;DHT22;10349;48.666;8.948;2023-04-30T02:05:20;9.40;99.90
20380;DHT22;10349;48.666;8.948;2023-04-30T02:07:48;9.40;99.90
20380;DHT22;10349;48.666;8.948;2023-04-30T02:10:17;9.40;99.90
20380;DHT22;10349;48.666;8.948;2023-04-30T02:12:42;9.50;99.90
20380;DHT22;10349;48.666;8.948;2023-04-30T02:15:09;9.40;99.90
20380;DHT22;10349;48.666;8.948;2023-04-30T02:17:35;9.40;99.90
20380;DHT22;10349;48.666;8.948;2023-04-30T02:20:01;9.40;99.90
20380;DHT22;10349;48.666;8.948;2023-04-30T02:22:26;9.40;99.90
20380;DHT22;10349;48.666;8.948;2023-04-30T02:24:52;9.40;99.90
20380;DHT22;10349;48.666;8.948;2023-04-30T02:27:20;9.30;99.90
20380;DHT22;10349;48.666;8.948;2023-04-30T02:29:46;9.30;99.90
20380;DHT22;10349;48.666;8.948;2023-04-30T02:32:12;9.30;99.90
20380;DHT22;10349;48.666;8.948;2023-04-30T02:34:39;9.30;99.90
20380;DHT22;10349;48.666;8.948;2023-04-30T02:37:05;9.30;99.90
20380;DHT22;10349;48.666;8.948;2023-04-30T02:39:31;9.30;99.90
20380;DHT22;10349;48.666;8.948;2023-04-30T02:41:57;9.20;99.90
20380;DHT22;10349;48.666;8.948;2023-04-30T02:44:23;9.30;99.90
20380;DHT22;10349;48.666;8.948;2023-04-30T02:46:49;9.20;99.90
20380;DHT22;10349;48.666;8.948;2023-04-30T02:49:15;9.20;99.90
20380;DHT22;10349;48.666;8.948;2023-04-30T02:51:40;9.20;99.90
20380;DHT22;10349;48.666;8.948;2023-04-30T02:54:06;9.20;99.90
20380;DHT22;10349;48.666;8.948;2023-04-30T02:56:32;9.20;99.90
20380;DHT22;10349;48.666;8.948;2023-04-30T02:58:57;9.20;99.90
20380;DHT22;10349;48.666;8.948;2023-04-30T03:01:23;9.20;99.90
20380;DHT22;10349;48.666;8.948;2023-04-30T03:03:49;9.20;99.90
20380;DHT22;10349;48.666;8.948;2023-04-30T03:06:15;9.20;99.90
20380;DHT22;10349;48.666;8.948;2023-04-30T03:08:40;9.10;99.90
20380;DHT22;10349;48.666;8.948;2023-04-30T03:11:06;9.10;99.90
20380;DHT22;10349;48.666;8.948;2023-04-30T03:13:32;9.10;99.90
20380;DHT22;10349;48.666;8.948;2023-04-30T03:15:59;9.20;99.90
20380;DHT22;10349;48.666;8.948;2023-04-30T03:18:29;9.10;99.90
20380;DHT22;10349;48.666;8.948;2023-04-30T03:20:55;9.20;99.90
20380;DHT22;10349;48.666;8.948;2023-04-30T03:23:21;9.20;99.90
20380;DHT22;10349;48.666;8.948;2023-04-30T03:25:47;9.10;99.90
20380;DHT22;10349;48.666;8.948;2023-04-30T03:28:12;9.10;99.90
20380;DHT22;10349;48.666;8.948;2023-04-30T03:30:38;9.10;99.90
20380;DHT22;10349;48.666;8.948;2023-04-30T03:33:04;9.00;99.90
20380;DHT22;10349;48.666;8.948;2023-04-30T03:35:31;9.10;99.90
20380;DHT22;10349;48.666;8.948;2023-04-30T03:37:58;9.00;99.90
20380;DHT22;10349;48.666;8.948;2023-04-30T03:40:24;9.00;99.90
20380;DHT22;10349;48.666;8.948;2023-04-30T03:42:50;9.00;99.90
20380;DHT22;10349;48.666;8.948;2023-04-30T03:45:16;9.00;99.90
20380;DHT22;10349;48.666;8.948;2023-04-30T03:47:42;9.10;99.90
20380;DHT22;10349;48.666;8.948;2023-04-30T03:50:09;9.10;99.90
20380;DHT22;10349;48.666;8.948;2023-04-30T03:52:35;9.00;99.90
20380;DHT22;10349;48.666;8.948;2023-04-30T03:55:04;9.00;99.90
20380;DHT22;10349;48.666;8.948;2023-04-30T03:57:31;9.00;99.90
20380;DHT22;10349;48.666;8.948;2023-04-30T03:59:58;9.10;99.90
20380;DHT22;10349;48.666;8.948;2023-04-30T04:02:24;9.10;99.90
20380;DHT22;10349;48.666;8.948;2023-04-30T04:04:50;9.10;99.90
20380;DHT22;10349;48.666;8.948;2023-04-30T04:07:16;9.00;99.90
20380;DHT22;10349;48.666;8.948;2023-04-30T04:09:42;9.00;99.90
20380;DHT22;10349;48.666;8.948;2023-04-30T04:12:08;9.00;99.90
20380;DHT22;10349;48.666;8.948;2023-04-30T04:14:35;9.10;99.90
20380;DHT22;10349;48.666;8.948;2023-04-30T04:17:01;9.00;99.90
20380;DHT22;10349;48.666;8.948;2023-04-30T04:19:30;9.00;99.90
20380;DHT22;10349;48.666;8.948;2023-04-30T04:21:56;9.10;99.90
20380;DHT22;10349;48.666;8.948;2023-04-30T04:24:24;9.00;99.90
20380;DHT22;10349;48.666;8.948;2023-04-30T04:26:50;9.00;99.90
20380;DHT22;10349;48.666;8.948;2023-04-30T04:29:16;8.90;99.90
20380;DHT22;10349;48.666;8.948;2023-04-30T04:31:42;8.90;99.90
20380;DHT22;10349;48.666;8.948;2023-04-30T04:34:09;8.90;99.90
20380;DHT22;10349;48.666;8.948;2023-04-30T04:36:35;8.80;99.90
20380;DHT22;10349;48.666;8.948;2023-04-30T04:39:01;8.80;99.90
20380;DHT22;10349;48.666;8.948;2023-04-30T04:41:28;8.80;99.90
20380;DHT22;10349;48.666;8.948;2023-04-30T04:43:54;8.70;99.90
20380;DHT22;10349;48.666;8.948;2023-04-30T04:46:21;8.70;99.90
20380;DHT22;10349;48.666;8.948;2023-04-30T04:48:53;8.60;99.90
20380;DHT22;10349;48.666;8.948;2023-04-30T04:51:19;8.80;99.90
20380;DHT22;10349;48.666;8.948;2023-04-30T04:53:51;8.80;99.90
20380;DHT22;10349;48.666;8.948;2023-04-30T04:56:17;8.80;99.90
20380;DHT22;10349;48.666;8.948;2023-04-30T04:58:44;8.90;99.90
20380;DHT22;10349;48.666;8.948;2023-04-30T05:01:10;8.80;99.90
20380;DHT22;10349;48.666;8.948;2023-04-30T05:03:36;8.90;99.90
20380;DHT22;10349;48.666;8.948;2023-04-30T05:06:04;8.90;99.90
20380;DHT22;10349;48.666;8.948;2023-04-30T05:08:30;8.90;99.90
20380;DHT22;10349;48.666;8.948;2023-04-30T05:10:56;9.00;99.90
20380;DHT22;10349;48.666;8.948;2023-04-30T05:13:22;9.00;99.90
20380;DHT22;10349;48.666;8.948;2023-04-30T05:15:52;9.10;99.90
20380;DHT22;10349;48.666;8.948;2023-04-30T05:18:19;9.10;99.90
20380;DHT22;10349;48.666;8.948;2023-04-30T05:20:44;9.20;99.90
20380;DHT22;10349;48.666;8.948;2023-04-30T05:23:10;9.10;99.90
20380;DHT22;10349;48.666;8.948;2023-04-30T05:25:35;9.20;99.90
20380;DHT22;10349;48.666;8.948;2023-04-30T05:28:01;9.30;99.90
20380;DHT22;10349;48.666;8.948;2023-04-30T05:30:28;9.30;99.90
20380;DHT22;10349;48.666;8.948;2023-04-30T05:32:54;9.40;99.90
20380;DHT22;10349;48.666;8.948;2023-04-30T05:35:21;9.50;99.90
20380;DHT22;10349;48.666;8.948;2023-04-30T05:37:47;9.60;99.90
20380;DHT22;10349;48.666;8.948;2023-04-30T05:40:13;9.70;99.90
20380;DHT22;10349;48.666;8.948;2023-04-30T05:42:39;9.80;99.90
20380;DHT22;10349;48.666;8.948;2023-04-30T05:45:06;9.80;99.90
20380;DHT22;10349;48.666;8.948;2023-04-30T05:47:33;9.90;99.90
20380;DHT22;10349;48.666;8.948;2023-04-30T05:49:59;10.00;99.90
20380;DHT22;10349;48.666;8.948;2023-04-30T05:52:25;10.10;99.90
20380;DHT22;10349;48.666;8.948;2023-04-30T05:54:50;10.10;99.90
20380;DHT22;10349;48.666;8.948;2023-04-30T05:57:16;10.20;99.90
20380;DHT22;10349;48.666;8.948;2023-04-30T05:59:42;10.30;99.90
20380;DHT22;10349;48.666;8.948;2023-04-30T06:02:08;10.40;99.90
20380;DHT22;10349;48.666;8.948;2023-04-30T06:04:33;10.50;99.90
20380;DHT22;10349;48.666;8.948;2023-04-30T06:06:59;10.60;99.90
20380;DHT22;10349;48.666;8.948;2023-04-30T06:09:25;10.60;99.90
20380;DHT22;10349;48.666;8.948;2023-04-30T06:11:50;10.70;99.90
20380;DHT22;10349;48.666;8.948;2023-04-30T06:14:17;10.60;99.90
20380;DHT22;10349;48.666;8.948;2023-04-30T06:16:46;10.50;99.90
20380;DHT22;10349;48.666;8.948;2023-04-30T06:19:11;10.50;99.90
20380;DHT22;10349;48.666;8.948;2023-04-30T06:21:37;10.60;99.90
20380;DHT22;10349;48.666;8.948;2023-04-30T06:24:03;10.60;99.90
20380;DHT22;10349;48.666;8.948;2023-04-30T06:26:30;10.50;99.90
20380;DHT22;10349;48.666;8.948;2023-04-30T06:28:56;10.50;99.90
20380;DHT22;10349;48.666;8.948;2023-04-30T06:31:23;10.50;99.90
20380;DHT22;10349;48.666;8.948;2023-04-30T06:33:49;10.50;99.90
20380;DHT22;10349;48.666;8.948;2023-04-30T06:36:15;10.60;99.90
20380;DHT22;10349;48.666;8.948;2023-04-30T06:38:40;10.60;99.90
20380;DHT22;10349;48.666;8.948;2023-04-30T06:41:08;10.70;99.90
20380;DHT22;10349;48.666;8.948;2023-04-30T06:43:34;10.70;99.90
20380;DHT22;10349;48.666;8.948;2023-04-30T06:46:00;10.70;99.90
20380;DHT22;10349;48.666;8.948;2023-04-30T06:48:26;10.80;99.90
20380;DHT22;10349;48.666;8.948;2023-04-30T06:50:51;10.90;99.90
20380;DHT22;10349;48.666;8.948;2023-04-30T06:53:17;11.00;99.90
20380;DHT22;10349;48.666;8.948;2023-04-30T06:55:44;11.10;99.90
20380;DHT22;10349;48.666;8.948;2023-04-30T06:58:14;11.20;99.90
20380;DHT22;10349;48.666;8.948;2023-04-30T07:00:39;11.20;99.90
20380;DHT22;10349;48.666;8.948;2023-04-30T07:03:05;11.20;99.90
20380;DHT22;10349;48.666;8.948;2023-04-30T07:05:31;11.30;99.90
20380;DHT22;10349;48.666;8.948;2023-04-30T07:07:59;11.40;99.90
20380;DHT22;10349;48.666;8.948;2023-04-30T07:10:26;11.40;99.90
20380;DHT22;10349;48.666;8.948;2023-04-30T07:12:51;11.40;99.90
20380;DHT22;10349;48.666;8.948;2023-04-30T07:15:17;11.40;99.90
20380;DHT22;10349;48.666;8.948;2023-04-30T07:17:43;11.40;99.90
20380;DHT22;10349;48.666;8.948;2023-04-30T07:20:09;11.50;99.90
20380;DHT22;10349;48.666;8.948;2023-04-30T07:22:35;11.50;99.90
20380;DHT22;10349;48.666;8.948;2023-04-30T07:25:00;11.50;99.90
20380;DHT22;10349;48.666;8.948;2023-04-30T07:27:26;11.60;99.90
20380;DHT22;10349;48.666;8.948;2023-04-30T07:29:53;11.70;99.90
20380;DHT22;10349;48.666;8.948;2023-04-30T07:32:20;11.80;99.90
20380;DHT22;10349;48.666;8.948;2023-04-30T07:34:45;11.80;99.90
20380;DHT22;10349;48.666;8.948;2023-04-30T07:37:11;12.00;99.90
20380;DHT22;10349;48.666;8.948;2023-04-30T07:39:37;12.00;99.90
20380;DHT22;10349;48.666;8.948;2023-04-30T07:42:03;12.10;99.90
20380;DHT22;10349;48.666;8.948;2023-04-30T07:44:32;12.20;99.90
20380;DHT22;10349;48.666;8.948;2023-04-30T07:46:57;12.20;99.90
20380;DHT22;10349;48.666;8.948;2023-04-30T07:49:24;12.20;99.90
20380;DHT22;10349;48.666;8.948;2023-04-30T07:51:50;12.20;99.90
20380;DHT22;10349;48.666;8.948;2023-04-30T07:54:16;12.40;99.90
20380;DHT22;10349;48.666;8.948;2023-04-30T07:56:43;12.50;99.90
20380;DHT22;10349;48.666;8.948;2023-04-30T07:59:09;12.60;99.90
20380;DHT22;10349;48.666;8.948;2023-04-30T08:01:35;12.80;99.90
20380;DHT22;10349;48.666;8.948;2023-04-30T08:04:00;12.90;99.90
20380;DHT22;10349;48.666;8.948;2023-04-30T08:06:28;13.10;99.90
20380;DHT22;10349;48.666;8.948;2023-04-30T08:08:53;13.20;99.90
20380;DHT22;10349;48.666;8.948;2023-04-30T08:11:19;13.30;99.90
20380;DHT22;10349;48.666;8.948;2023-04-30T08:13:46;13.30;99.90
20380;DHT22;10349;48.666;8.948;2023-04-30T08:16:11;13.40;99.90
20380;DHT22;10349;48.666;8.948;2023-04-30T08:18:37;13.30;99.90
20380;DHT22;10349;48.666;8.948;2023-04-30T08:21:10;13.40;99.90
20380;DHT22;10349;48.666;8.948;2023-04-30T08:23:36;13.30;99.90
20380;DHT22;10349;48.666;8.948;2023-04-30T08:26:02;13.20;99.90
20380;DHT22;10349;48.666;8.948;2023-04-30T08:28:27;13.30;99.90
20380;DHT22;10349;48.666;8.948;2023-04-30T08:30:53;13.30;99.90
20380;DHT22;10349;48.666;8.948;2023-04-30T08:33:19;13.30;99.90
20380;DHT22;10349;48.666;8.948;2023-04-30T08:35:45;13.30;99.90
20380;DHT22;10349;48.666;8.948;2023-04-30T08:38:10;13.30;99.90
20380;DHT22;10349;48.666;8.948;2023-04-30T08:40:36;13.40;99.90
20380;DHT22;10349;48.666;8.948;2023-04-30T08:43:05;13.40;99.90
20380;DHT22;10349;48.666;8.948;2023-04-30T08:45:32;13.50;99.90
20380;DHT22;10349;48.666;8.948;2023-04-30T08:48:16;13.50;99.90
20380;DHT22;10349;48.666;8.948;2023-04-30T08:50:44;13.50;99.90
20380;DHT22;10349;48.666;8.948;2023-04-30T08:53:11;13.60;99.90
20380;DHT22;10349;48.666;8.948;2023-04-30T08:55:39;13.80;99.90
20380;DHT22;10349;48.666;8.948;2023-04-30T08:58:07;13.90;99.90
20380;DHT22;10349;48.666;8.948;2023-04-30T09:00:33;13.90;99.90
20380;DHT22;10349;48.666;8.948;2023-04-30T09:03:00;14.00;99.90
20380;DHT22;10349;48.666;8.948;2023-04-30T09:05:26;13.90;99.90
20380;DHT22;10349;48.666;8.948;2023-04-30T09:07:51;13.80;99.90
20380;DHT22;10349;48.666;8.948;2023-04-30T09:10:19;13.80;99.90
20380;DHT22;10349;48.666;8.948;2023-04-30T09:13:01;13.80;99.90
20380;DHT22;10349;48.666;8.948;2023-04-30T09:15:28;13.80;99.90
20380;DHT22;10349;48.666;8.948;2023-04-30T09:20:53;13.70;99.90
20380;DHT22;10349;48.666;8.948;2023-04-30T09:23:19;13.70;99.90
20380;DHT22;10349;48.666;8.948;2023-04-30T09:25:45;13.70;99.90
20380;DHT22;10349;48.666;8.948;2023-04-30T09:28:12;13.80;99.90
20380;DHT22;10349;48.666;8.948;2023-04-30T09:30:41;13.70;99.90
20380;DHT22;10349;48.666;8.948;2023-04-30T09:33:08;13.80;99.90
20380;DHT22;10349;48.666;8.948;2023-04-30T09:35:35;13.80;99.90
20380;DHT22;10349;48.666;8.948;2023-04-30T09:38:02;13.70;99.90
20380;DHT22;10349;48.666;8.948;2023-04-30T09:42:59;13.70;99.90
20380;DHT22;10349;48.666;8.948;2023-04-30T09:45:25;13.80;99.90
20380;DHT22;10349;48.666;8.948;2023-04-30T09:47:51;13.90;99.90
20380;DHT22;10349;48.666;8.948;2023-04-30T09:50:17;13.90;99.90
20380;DHT22;10349;48.666;8.948;2023-04-30T09:52:52;13.90;99.90
20380;DHT22;10349;48.666;8.948;2023-04-30T09:55:19;13.90;99.90
20380;DHT22;10349;48.666;8.948;2023-04-30T09:57:47;13.80;99.90
20380;DHT22;10349;48.666;8.948;2023-04-30T10:00:14;13.90;99.90
20380;DHT22;10349;48.666;8.948;2023-04-30T10:02:41;13.90;99.90
20380;DHT22;10349;48.666;8.948;2023-04-30T10:05:07;13.90;99.90
20380;DHT22;10349;48.666;8.948;2023-04-30T10:07:37;13.50;99.90
20380;DHT22;10349;48.666;8.948;2023-04-30T10:10:08;13.50;99.90
20380;DHT22;10349;48.666;8.948;2023-04-30T10:12:38;13.50;99.90
20380;DHT22;10349;48.666;8.948;2023-04-30T10:17:37;13.60;99.90
20380;DHT22;10349;48.666;8.948;2023-04-30T10:20:09;13.60;99.90
20380;DHT22;10349;48.666;8.948;2023-04-30T10:22:49;13.80;99.90
20380;DHT22;10349;48.666;8.948;2023-04-30T10:25:23;13.90;99.90
20380;DHT22;10349;48.666;8.948;2023-04-30T10:27:51;13.90;99.90
20380;DHT22;10349;48.666;8.948;2023-04-30T10:30:38;14.10;99.90
20380;DHT22;10349;48.666;8.948;2023-04-30T10:36:32;14.20;99.90
20380;DHT22;10349;48.666;8.948;2023-04-30T10:39:02;14.30;99.90
20380;DHT22;10349;48.666;8.948;2023-04-30T10:41:43;14.40;99.90
20380;DHT22;10349;48.666;8.948;2023-04-30T10:44:10;14.60;99.90
20380;DHT22;10349;48.666;8.948;2023-04-30T10:46:36;14.60;99.90
20380;DHT22;10349;48.666;8.948;2023-04-30T10:49:01;14.60;99.90
20380;DHT22;10349;48.666;8.948;2023-04-30T10:51:47;14.60;99.90
20380;DHT22;10349;48.666;8.948;2023-04-30T10:54:15;14.60;99.90
20380;DHT22;10349;48.666;8.948;2023-04-30T10:56:45;14.70;99.90
20380;DHT22;10349;48.666;8.948;2023-04-30T10:59:11;14.70;99.90
20380;DHT22;10349;48.666;8.948;2023-04-30T11:01:58;14.70;99.90
20380;DHT22;10349;48.666;8.948;2023-04-30T11:04:24;14.70;99.90
20380;DHT22;10349;48.666;8.948;2023-04-30T11:07:00;14.90;99.90
20380;DHT22;10349;48.666;8.948;2023-04-30T11:12:03;14.90;99.90
20380;DHT22;10349;48.666;8.948;2023-04-30T11:14:31;14.90;99.90
20380;DHT22;10349;48.666;8.948;2023-04-30T11:16:58;14.90;99.90
20380;DHT22;10349;48.666;8.948;2023-04-30T11:19:26;14.80;99.90
20380;DHT22;10349;48.666;8.948;2023-04-30T11:27:45;14.90;99.90
20380;DHT22;10349;48.666;8.948;2023-04-30T11:30:15;14.80;99.90
20380;DHT22;10349;48.666;8.948;2023-04-30T11:32:44;14.80;99.90
20380;DHT22;10349;48.666;8.948;2023-04-30T11:35:16;14.80;99.90
20380;DHT22;10349;48.666;8.948;2023-04-30T11:37:45;14.90;99.90
20380;DHT22;10349;48.666;8.948;2023-04-30T11:40:13;15.00;99.90
20380;DHT22;10349;48.666;8.948;2023-04-30T11:42:41;15.00;99.90
20380;DHT22;10349;48.666;8.948;2023-04-30T11:45:10;15.10;99.90
20380;DHT22;10349;48.666;8.948;2023-04-30T11:50:19;15.00;99.90
20380;DHT22;10349;48.666;8.948;2023-04-30T11:52:52;15.20;99.90
20380;DHT22;10349;48.666;8.948;2023-04-30T11:55:21;15.20;99.90
20380;DHT22;10349;48.666;8.948;2023-04-30T11:57:49;15.40;99.90
20380;DHT22;10349;48.666;8.948;2023-04-30T12:00:18;15.60;99.90
20380;DHT22;10349;48.666;8.948;2023-04-30T12:02:48;15.50;99.90
20380;DHT22;10349;48.666;8.948;2023-04-30T12:05:15;15.60;99.90
20380;DHT22;10349;48.666;8.948;2023-04-30T12:07:49;15.50;99.90
20380;DHT22;10349;48.666;8.948;2023-04-30T12:10:17;15.50;99.90
20380;DHT22;10349;48.666;8.948;2023-04-30T12:12:43;15.50;99.90
20380;DHT22;10349;48.666;8.948;2023-04-30T12:15:19;15.40;99.90
20380;DHT22;10349;48.666;8.948;2023-04-30T12:17:47;15.40;99.90
20380;DHT22;10349;48.666;8.948;2023-04-30T12:20:13;15.40;99.90
20380;DHT22;10349;48.666;8.948;2023-04-30T12:22:43;15.30;99.90
20380;DHT22;10349;48.666;8.948;2023-04-30T12:25:13;15.30;99.90
20380;DHT22;10349;48.666;8.948;2023-04-30T12:27:41;15.30;99.90
20380;DHT22;10349;48.666;8.948;2023-04-30T12:30:09;15.40;99.90
20380;DHT22;10349;48.666;8.948;2023-04-30T12:32:43;15.40;99.90
20380;DHT22;10349;48.666;8.948;2023-04-30T12:35:16;15.40;99.90
20380;DHT22;10349;48.666;8.948;2023-04-30T12:37:47;15.30;99.90
20380;DHT22;10349;48.666;8.948;2023-04-30T12:40:14;15.40;99.90
20380;DHT22;10349;48.666;8.948;2023-04-30T12:42:43;15.60;99.90
20380;DHT22;10349;48.666;8.948;2023-04-30T12:45:11;15.80;99.90
20380;DHT22;10349;48.666;8.948;2023-04-30T12:47:40;15.70;99.90
20380;DHT22;10349;48.666;8.948;2023-04-30T12:50:11;15.40;99.90
20380;DHT22;10349;48.666;8.948;2023-04-30T12:52:38;15.40;99.90
20380;DHT22;10349;48.666;8.948;2023-04-30T12:55:18;15.40;99.90
20380;DHT22;10349;48.666;8.948;2023-04-30T12:58:07;15.60;99.90
20380;DHT22;10349;48.666;8.948;2023-04-30T13:00:44;15.90;99.90
20380;DHT22;10349;48.666;8.948;2023-04-30T13:03:11;15.80;99.90
20380;DHT22;10349;48.666;8.948;2023-04-30T13:05:37;15.90;99.90
20380;DHT22;10349;48.666;8.948;2023-04-30T13:08:03;15.80;99.90
20380;DHT22;10349;48.666;8.948;2023-04-30T13:10:31;15.80;99.90
20380;DHT22;10349;48.666;8.948;2023-04-30T13:12:58;15.90;99.90
20380;DHT22;10349;48.666;8.948;2023-04-30T13:15:24;16.00;99.90
20380;DHT22;10349;48.666;8.948;2023-04-30T13:17:51;15.90;99.90
20380;DHT22;10349;48.666;8.948;2023-04-30T13:20:17;16.00;99.90
20380;DHT22;10349;48.666;8.948;2023-04-30T13:22:43;16.10;99.90
20380;DHT22;10349;48.666;8.948;2023-04-30T13:25:09;15.90;99.90
20380;DHT22;10349;48.666;8.948;2023-04-30T13:27:36;15.90;99.90
20380;DHT22;10349;48.666;8.948;2023-04-30T13:30:03;16.10;99.90
20380;DHT22;10349;48.666;8.948;2023-04-30T13:32:29;16.30;99.90
20380;DHT22;10349;48.666;8.948;2023-04-30T13:34:56;16.50;99.90
20380;DHT22;10349;48.666;8.948;2023-04-30T13:37:24;16.50;99.90
20380;DHT22;10349;48.666;8.948;2023-04-30T13:39:50;16.40;99.90
20380;DHT22;10349;48.666;8.948;2023-04-30T13:42:17;16.40;99.90
20380;DHT22;10349;48.666;8.948;2023-04-30T13:44:43;16.50;99.90
20380;DHT22;10349;48.666;8.948;2023-04-30T13:47:10;16.40;99.90
20380;DHT22;10349;48.666;8.948;2023-04-30T13:49:36;16.40;99.90
20380;DHT22;10349;48.666;8.948;2023-04-30T13:52:04;16.30;99.90
20380;DHT22;10349;48.666;8.948;2023-04-30T13:54:30;16.30;99.90
20380;DHT22;10349;48.666;8.948;2023-04-30T13:56:57;16.30;99.90
20380;DHT22;10349;48.666;8.948;2023-04-30T13:59:25;16.30;99.90
20380;DHT22;10349;48.666;8.948;2023-04-30T14:01:51;16.30;99.90
20380;DHT22;10349;48.666;8.948;2023-04-30T14:04:17;16.30;99.90
20380;DHT22;10349;48.666;8.948;2023-04-30T14:06:43;16.10;99.90
20380;DHT22;10349;48.666;8.948;2023-04-30T14:09:09;16.10;99.90
20380;DHT22;10349;48.666;8.948;2023-04-30T14:11:35;16.00;99.90
20380;DHT22;10349;48.666;8.948;2023-04-30T14:14:01;16.10;99.90
20380;DHT22;10349;48.666;8.948;2023-04-30T14:16:26;16.00;99.90
20380;DHT22;10349;48.666;8.948;2023-04-30T14:18:53;15.90;99.90
20380;DHT22;10349;48.666;8.948;2023-04-30T14:21:18;15.80;99.90
20380;DHT22;10349;48.666;8.948;2023-04-30T14:23:44;15.80;99.90
20380;DHT22;10349;48.666;8.948;2023-04-30T14:26:13;15.90;99.90
20380;DHT22;10349;48.666;8.948;2023-04-30T14:28:39;16.10;99.90
20380;DHT22;10349;48.666;8.948;2023-04-30T14:31:05;16.10;99.90
20380;DHT22;10349;48.666;8.948;2023-04-30T14:33:31;16.20;99.90
20380;DHT22;10349;48.666;8.948;2023-04-30T14:35:57;16.20;99.90
20380;DHT22;10349;48.666;8.948;2023-04-30T14:38:24;16.20;99.90
20380;DHT22;10349;48.666;8.948;2023-04-30T14:40:50;16.10;99.90
20380;DHT22;10349;48.666;8.948;2023-04-30T14:43:16;15.90;99.90
20380;DHT22;10349;48.666;8.948;2023-04-30T14:45:42;15.80;99.90
20380;DHT22;10349;48.666;8.948;2023-04-30T14:48:09;15.70;99.90
20380;DHT22;10349;48.666;8.948;2023-04-30T14:50:35;15.80;99.90
20380;DHT22;10349;48.666;8.948;2023-04-30T14:53:02;15.90;99.90
20380;DHT22;10349;48.666;8.948;2023-04-30T14:55:28;16.00;99.90
20380;DHT22;10349;48.666;8.948;2023-04-30T14:57:54;16.10;99.90
20380;DHT22;10349;48.666;8.948;2023-04-30T15:00:20;16.20;99.90
20380;DHT22;10349;48.666;8.948;2023-04-30T15:02:46;16.20;99.90
20380;DHT22;10349;48.666;8.948;2023-04-30T15:05:12;16.00;99.90
20380;DHT22;10349;48.666;8.948;2023-04-30T15:07:38;15.90;99.90
20380;DHT22;10349;48.666;8.948;2023-04-30T15:10:04;15.80;99.90
20380;DHT22;10349;48.666;8.948;2023-04-30T15:12:31;15.80;99.90
20380;DHT22;10349;48.666;8.948;2023-04-30T15:14:57;15.70;99.90
20380;DHT22;10349;48.666;8.948;2023-04-30T15:17:23;15.80;99.90
20380;DHT22;10349;48.666;8.948;2023-04-30T15:19:48;15.80;99.90
20380;DHT22;10349;48.666;8.948;2023-04-30T15:22:14;15.80;99.90
20380;DHT22;10349;48.666;8.948;2023-04-30T15:24:40;15.90;99.90
20380;DHT22;10349;48.666;8.948;2023-04-30T15:27:06;16.10;99.90
20380;DHT22;10349;48.666;8.948;2023-04-30T15:29:32;16.30;99.90
20380;DHT22;10349;48.666;8.948;2023-04-30T15:31:58;16.30;99.90
20380;DHT22;10349;48.666;8.948;2023-04-30T15:34:24;16.20;99.90
20380;DHT22;10349;48.666;8.948;2023-04-30T15:36:50;16.20;99.90
20380;DHT22;10349;48.666;8.948;2023-04-30T15:39:16;16.20;99.90
20380;DHT22;10349;48.666;8.948;2023-04-30T15:41:42;16.10;99.90
20380;DHT22;10349;48.666;8.948;2023-04-30T15:44:09;15.90;99.90
20380;DHT22;10349;48.666;8.948;2023-04-30T15:46:35;15.90;99.90
20380;DHT22;10349;48.666;8.948;2023-04-30T15:49:00;15.80;99.90
20380;DHT22;10349;48.666;8.948;2023-04-30T15:51:26;15.70;99.90
20380;DHT22;10349;48.666;8.948;2023-04-30T15:53:54;15.70;99.90
20380;DHT22;10349;48.666;8.948;2023-04-30T15:56:19;15.80;99.90
20380;DHT22;10349;48.666;8.948;2023-04-30T15:58:52;15.90;99.90
20380;DHT22;10349;48.666;8.948;2023-04-30T16:01:18;15.90;99.90
20380;DHT22;10349;48.666;8.948;2023-04-30T16:03:44;16.00;99.90
20380;DHT22;10349;48.666;8.948;2023-04-30T16:06:10;16.00;99.90
20380;DHT22;10349;48.666;8.948;2023-04-30T16:08:36;16.10;99.90